Terminal Aerodrome Forecast
Issued by NWS

Home | Current Version | Previous Version | Text Only | Print | Product List | Glossary On
Versions: 1 2 3 4 5 6 7 8 9 10 11 12 13 14 15 16 17 18 19 20 21 22 23
563
FTUS46 KMTR 301818 AAA
TAFSFO
TAF AMD
KSFO 301818Z 3018/3124 35006KT P6SM FEW006 FEW011
     FM302100 28015G22KT P6SM FEW008 FEW012 FEW100
     FM310400 28012KT P6SM FEW008 SCT100
     FM311100 28010KT P6SM BKN008
     FM311700 28007KT P6SM FEW009 SCT100
     FM312100 27012KT P6SM SCT100=

USA.gov is the U.S. government's official web portal to all federal, state and local government web resources and services.